Millers Tavern, Virginia
Current Conditions -  °F | °C
As of 3:35 PM on Saturday 20 Dec 2014 (Local Time) from KXSA Reporting Station
Broken Clouds Broken Clouds  
Wind Chill: 37°   Ceiling: 10000
Heat Index: 37°   Visibility: 10mi
Dew Point: 21°   Wind: 0mph
Humidity: 53%   Direction: NA
Pressure: 30.28"   Gusts: NA
Location:  37.83°N, 76.95°W
Report Text: KXSA 202035Z AUTO 00000KT 10SM BKN100 BKN120 03/M06 A3028 RMK AO2 T00281060
Loading
Personal Weather Stations






























Interactive Weather Map New forecast layout! Learn more

10-Day Weather Forecast

Advertisements
Track Severe Weather on mobile